createdAt,value
2017-10-13T00:01:32.499Z,4.30
2017-10-13T00:03:58.687Z,5.20
2017-10-13T00:06:25.890Z,5.87
2017-10-13T00:08:52.157Z,5.50
2017-10-13T00:11:18.444Z,6.47
2017-10-13T00:13:44.686Z,5.77
2017-10-13T00:16:11.762Z,5.40
2017-10-13T00:18:38.052Z,5.20
2017-10-13T00:21:04.658Z,5.00
2017-10-13T00:23:30.903Z,4.70
2017-10-13T00:25:57.954Z,4.43
2017-10-13T00:28:24.946Z,5.07
2017-10-13T00:30:51.180Z,4.20
2017-10-13T00:33:17.350Z,4.60
2017-10-13T00:35:43.630Z,4.50
2017-10-13T00:38:09.811Z,5.23
2017-10-13T00:40:36.083Z,4.03
2017-10-13T00:43:02.301Z,4.80
2017-10-13T00:45:28.874Z,3.90
2017-10-13T00:47:55.433Z,4.27
2017-10-13T00:50:21.651Z,5.40
2017-10-13T00:52:48.646Z,4.13
2017-10-13T00:55:14.958Z,4.07
2017-10-13T00:57:42.015Z,4.10
2017-10-13T01:00:08.240Z,4.40
2017-10-13T01:02:34.464Z,4.00
2017-10-13T01:05:01.433Z,3.93
2017-10-13T01:07:27.755Z,4.50
2017-10-13T01:09:54.733Z,4.40
2017-10-13T01:12:21.048Z,3.97
2017-10-13T01:14:47.686Z,4.87
2017-10-13T01:17:14.276Z,4.67
2017-10-13T01:19:40.923Z,4.33
2017-10-13T01:22:07.670Z,4.43
2017-10-13T01:24:34.295Z,4.80
2017-10-13T01:27:00.573Z,4.50
2017-10-13T01:29:27.555Z,4.57
2017-10-13T01:31:53.805Z,4.90
2017-10-13T01:34:20.078Z,5.50
2017-10-13T01:36:47.728Z,4.30
2017-10-13T01:39:14.382Z,5.70
2017-10-13T01:41:40.622Z,4.13
2017-10-13T01:44:07.642Z,5.30
2017-10-13T01:46:33.886Z,4.63
2017-10-13T01:49:00.159Z,4.83
2017-10-13T02:01:06.474Z,5.07
2017-10-13T02:03:32.650Z,4.30
2017-10-13T02:05:59.592Z,5.50
2017-10-13T02:08:26.183Z,5.00
2017-10-13T02:10:52.403Z,6.17
2017-10-13T02:13:18.671Z,5.70
2017-10-13T02:15:45.632Z,5.13
2017-10-13T02:18:12.302Z,4.67
2017-10-13T02:20:38.918Z,6.67
2017-10-13T02:23:05.956Z,5.87
2017-10-13T02:25:32.215Z,4.77
2017-10-13T02:27:59.239Z,5.90
2017-10-13T02:30:26.322Z,5.60
2017-10-13T02:32:52.596Z,5.20
2017-10-13T02:35:18.823Z,5.37
2017-10-13T02:37:45.099Z,5.47
2017-10-13T02:40:11.772Z,5.23
2017-10-13T02:42:37.996Z,7.40
2017-10-13T02:45:04.213Z,5.60
2017-10-13T02:47:30.435Z,5.70
2017-10-13T02:49:56.612Z,5.97
2017-10-13T02:52:22.920Z,5.20
2017-10-13T02:54:49.504Z,4.90
2017-10-13T02:57:15.706Z,5.10
2017-10-13T02:59:41.931Z,5.50
2017-10-13T03:02:08.575Z,6.23
2017-10-13T03:04:36.531Z,5.10
2017-10-13T03:07:02.761Z,5.10
2017-10-13T03:09:28.934Z,5.63
2017-10-13T03:11:55.514Z,4.53
2017-10-13T03:14:23.396Z,4.70
2017-10-13T03:16:50.572Z,5.63
2017-10-13T03:19:17.527Z,7.00
2017-10-13T03:21:43.770Z,6.10
2017-10-13T03:24:10.372Z,6.27
2017-10-13T03:26:37.001Z,5.27
2017-10-13T03:29:03.251Z,6.30
2017-10-13T03:31:29.468Z,6.60
2017-10-13T03:33:55.671Z,6.30
2017-10-13T03:36:21.862Z,6.27
2017-10-13T03:38:48.074Z,5.97
2017-10-13T03:41:14.275Z,6.30
2017-10-13T03:43:41.998Z,5.67
2017-10-13T03:46:09.006Z,5.67
2017-10-13T03:48:35.275Z,8.33
2017-10-13T03:51:01.616Z,5.13
2017-10-13T03:53:28.555Z,5.70
2017-10-13T03:55:56.741Z,6.83
2017-10-13T03:58:24.515Z,5.47
2017-10-13T04:00:50.892Z,6.73
2017-10-13T04:03:17.146Z,6.17
2017-10-13T04:05:43.914Z,5.97
2017-10-13T04:08:11.907Z,6.03
2017-10-13T04:10:38.517Z,6.53
2017-10-13T04:13:05.522Z,7.57
2017-10-13T04:15:32.110Z,6.50
2017-10-13T04:17:58.430Z,5.80
2017-10-13T04:20:25.799Z,6.77
2017-10-13T04:22:52.001Z,6.80
2017-10-13T04:25:18.950Z,7.13
2017-10-13T04:27:46.184Z,6.97
2017-10-13T04:30:12.846Z,7.43
2017-10-13T04:32:39.457Z,6.10
2017-10-13T04:35:05.715Z,6.90
2017-10-13T04:37:31.951Z,7.30
2017-10-13T04:39:58.491Z,6.90
2017-10-13T04:42:25.430Z,6.23
2017-10-13T04:44:51.646Z,5.83
2017-10-13T04:47:18.072Z,6.70
2017-10-13T04:49:44.422Z,6.10
2017-10-13T04:52:10.703Z,6.57
2017-10-13T04:54:36.926Z,6.33
2017-10-13T04:57:03.129Z,6.10
2017-10-13T04:59:29.319Z,5.30
2017-10-13T05:01:55.584Z,6.50
2017-10-13T05:04:21.902Z,8.83
2017-10-13T05:06:49.586Z,7.80
2017-10-13T05:09:16.997Z,7.30
2017-10-13T05:11:44.021Z,7.03
2017-10-13T05:14:10.235Z,6.07
2017-10-13T05:16:36.460Z,6.60
2017-10-13T05:19:03.382Z,6.83
2017-10-13T05:21:30.449Z,7.07
2017-10-13T05:23:56.655Z,7.73
2017-10-13T05:26:23.508Z,6.73
2017-10-13T05:28:49.824Z,7.27
2017-10-13T05:31:17.011Z,7.30
2017-10-13T05:33:43.634Z,6.73
2017-10-13T05:36:09.832Z,6.33
2017-10-13T05:38:36.068Z,7.40
2017-10-13T05:41:02.267Z,8.73
2017-10-13T05:43:28.546Z,8.87
2017-10-13T05:45:55.494Z,6.77
2017-10-13T05:48:23.197Z,6.60
2017-10-13T05:50:50.117Z,7.10
2017-10-13T05:53:16.392Z,6.97
2017-10-13T05:55:42.552Z,6.70
2017-10-13T05:58:08.849Z,6.93
2017-10-13T06:00:35.083Z,6.10
2017-10-13T06:03:01.660Z,6.50
2017-10-13T06:05:28.877Z,7.20
2017-10-13T06:07:55.301Z,6.13
2017-10-13T06:10:25.598Z,8.77
2017-10-13T06:12:53.779Z,9.00
2017-10-13T06:15:21.539Z,9.07
2017-10-13T06:17:48.468Z,7.87
2017-10-13T06:20:14.714Z,7.73
2017-10-13T06:22:42.546Z,7.30
2017-10-13T06:25:09.003Z,7.37
2017-10-13T06:27:35.514Z,8.43
2017-10-13T06:30:01.767Z,8.50
2017-10-13T06:32:30.178Z,8.60
2017-10-13T06:34:56.404Z,8.50
2017-10-13T06:37:23.346Z,9.10
2017-10-13T06:39:50.288Z,8.23
2017-10-13T06:42:16.896Z,10.07
2017-10-13T06:44:44.138Z,9.60
2017-10-13T06:47:10.384Z,10.57
2017-10-13T06:49:36.583Z,10.13
2017-10-13T06:52:02.941Z,10.90
2017-10-13T06:54:29.154Z,10.40
2017-10-13T06:56:55.440Z,10.37
2017-10-13T06:59:21.814Z,10.13
2017-10-13T07:01:48.040Z,11.50
2017-10-13T07:04:14.280Z,11.23
2017-10-13T07:06:41.061Z,10.27
2017-10-13T07:09:07.254Z,10.70
2017-10-13T07:11:33.431Z,11.33
2017-10-13T07:14:00.633Z,12.53
2017-10-13T07:16:27.633Z,11.67
2017-10-13T07:18:53.863Z,10.13
2017-10-13T07:21:20.158Z,11.43
2017-10-13T07:23:46.446Z,12.47
2017-10-13T07:26:13.418Z,10.53
2017-10-13T07:28:39.657Z,10.20
2017-10-13T07:31:05.895Z,10.53
2017-10-13T07:33:32.121Z,11.40
2017-10-13T07:35:58.681Z,10.67
2017-10-13T07:38:24.917Z,11.10
2017-10-13T07:40:52.407Z,9.90
2017-10-13T07:43:18.647Z,10.63
2017-10-13T07:45:45.313Z,9.10
2017-10-13T07:48:11.852Z,11.17
2017-10-13T07:50:39.639Z,11.10
2017-10-13T07:53:07.195Z,9.97
2017-10-13T07:55:34.516Z,11.00
2017-10-13T07:58:01.111Z,9.63
2017-10-13T08:00:27.724Z,10.90
2017-10-13T08:02:54.906Z,9.87
2017-10-13T08:05:21.949Z,10.57
2017-10-13T08:07:49.350Z,8.47
2017-10-13T08:10:15.523Z,9.07
2017-10-13T08:12:42.222Z,10.97
2017-10-13T08:15:09.992Z,11.47
2017-10-13T08:17:36.720Z,7.80
2017-10-13T08:20:03.240Z,11.57
2017-10-13T08:22:47.964Z,12.37
2017-10-13T08:25:14.494Z,11.50
2017-10-13T08:27:41.490Z,10.90
2017-10-13T08:30:07.714Z,10.80
2017-10-13T08:42:14.485Z,12.43
2017-10-13T08:44:40.699Z,11.37
2017-10-13T08:47:08.436Z,15.10
2017-10-13T08:49:34.718Z,12.20
2017-10-13T08:52:00.942Z,11.10
2017-10-13T08:54:27.474Z,11.37
2017-10-13T08:56:55.608Z,10.60
2017-10-13T08:59:22.601Z,13.70
2017-10-13T09:01:50.481Z,12.93
2017-10-13T09:04:17.499Z,11.57
2017-10-13T09:06:44.667Z,12.63
2017-10-13T09:09:10.906Z,11.20
2017-10-13T09:11:38.081Z,12.37
2017-10-13T09:14:04.740Z,10.53
2017-10-13T09:16:32.280Z,10.70
2017-10-13T09:18:59.549Z,10.37
2017-10-13T09:21:27.089Z,10.83
2017-10-13T09:23:53.766Z,9.33
2017-10-13T09:26:20.415Z,10.70
2017-10-13T09:28:48.360Z,10.63
2017-10-13T09:31:15.209Z,10.03
2017-10-13T09:33:41.455Z,8.70
2017-10-13T09:36:08.553Z,10.00
2017-10-13T09:38:35.562Z,10.67
2017-10-13T09:41:02.876Z,10.30
2017-10-13T09:43:29.474Z,10.93
2017-10-13T09:55:36.957Z,8.33
2017-10-13T09:58:03.620Z,9.27
2017-10-13T10:00:30.294Z,7.77
2017-10-13T10:02:57.823Z,7.63
2017-10-13T10:05:24.049Z,8.70
2017-10-13T10:07:51.057Z,10.80
2017-10-13T10:10:17.271Z,7.70
2017-10-13T10:12:43.607Z,7.57
2017-10-13T10:15:12.748Z,7.43
2017-10-13T10:17:39.720Z,10.43
2017-10-13T10:20:07.083Z,7.37
2017-10-13T10:22:35.418Z,8.20
2017-10-13T10:25:02.774Z,6.97
2017-10-13T10:27:29.816Z,8.80
2017-10-13T10:29:57.005Z,8.77
2017-10-13T10:32:23.746Z,7.30
2017-10-13T10:34:50.789Z,6.27
2017-10-13T10:37:17.345Z,6.70
2017-10-13T10:39:44.417Z,8.53
2017-10-13T10:42:10.838Z,9.50
2017-10-13T10:44:37.968Z,7.83
2017-10-13T10:47:04.915Z,8.13
2017-10-13T10:49:32.545Z,8.90
2017-10-13T10:52:00.022Z,10.30
2017-10-13T10:54:27.280Z,8.30
2017-10-13T10:56:58.146Z,8.23
2017-10-13T10:59:26.810Z,11.43
2017-10-13T11:01:53.827Z,7.27
2017-10-13T11:04:20.811Z,10.13
2017-10-13T11:06:47.403Z,8.07
2017-10-13T11:09:14.748Z,9.77
2017-10-13T11:11:41.343Z,10.43
2017-10-13T11:14:07.949Z,8.13
2017-10-13T11:16:34.173Z,9.03
2017-10-13T11:19:00.817Z,7.90
2017-10-13T11:21:27.243Z,8.87
2017-10-13T11:23:55.782Z,10.73
2017-10-13T11:26:22.923Z,9.10
2017-10-13T11:28:51.699Z,11.90
2017-10-13T11:31:18.911Z,9.60
2017-10-13T11:33:45.268Z,7.50
2017-10-13T11:36:11.491Z,7.40
2017-10-13T11:38:38.055Z,7.90
2017-10-13T11:41:04.263Z,7.00
2017-10-13T11:43:33.393Z,8.57
2017-10-13T11:45:59.656Z,8.80
2017-10-13T11:48:25.891Z,6.67
2017-10-13T11:50:53.078Z,8.00
2017-10-13T11:53:21.611Z,11.53
2017-10-13T11:55:49.171Z,13.23
2017-10-13T11:58:17.325Z,10.40
2017-10-13T12:00:44.814Z,9.77
2017-10-13T12:03:11.799Z,7.20
2017-10-13T12:05:38.289Z,8.43
2017-10-13T12:08:05.289Z,10.20
2017-10-13T12:10:33.507Z,11.27
2017-10-13T12:13:00.816Z,10.60
2017-10-13T12:15:27.591Z,12.87
2017-10-13T12:17:55.078Z,8.70
2017-10-13T12:20:22.614Z,11.00
2017-10-13T12:22:51.372Z,10.70
2017-10-13T12:25:19.203Z,10.53
2017-10-13T12:27:47.978Z,10.10
2017-10-13T12:30:15.599Z,8.57
2017-10-13T12:32:42.645Z,8.40
2017-10-13T12:35:09.514Z,7.30
2017-10-13T12:37:37.267Z,8.17
2017-10-13T12:40:03.468Z,8.13
2017-10-13T12:42:30.484Z,8.33
2017-10-13T12:44:56.742Z,9.80
2017-10-13T12:47:23.353Z,8.63
2017-10-13T12:49:50.106Z,8.87
2017-10-13T12:52:16.668Z,8.20
2017-10-13T12:54:43.282Z,8.37
2017-10-13T12:57:09.523Z,8.10
2017-10-13T12:59:35.904Z,8.70
2017-10-13T13:02:02.560Z,6.60
2017-10-13T13:04:28.739Z,7.07
2017-10-13T13:06:55.704Z,8.63
2017-10-13T13:09:21.947Z,6.43
2017-10-13T13:11:48.891Z,7.57
2017-10-13T13:14:15.540Z,7.40
2017-10-13T13:16:41.763Z,7.00
2017-10-13T13:19:09.706Z,5.83
2017-10-13T13:21:36.297Z,10.60
2017-10-13T13:24:03.160Z,8.03
2017-10-13T13:26:30.883Z,6.40
2017-10-13T13:28:57.676Z,6.50
2017-10-13T13:31:24.670Z,5.77
2017-10-13T13:33:50.866Z,6.07
2017-10-13T13:36:17.570Z,6.10
2017-10-13T13:38:45.765Z,9.60
2017-10-13T13:41:12.785Z,5.57
2017-10-13T13:43:40.467Z,5.50
2017-10-13T13:46:06.700Z,5.43
2017-10-13T13:48:37.138Z,7.43
2017-10-13T13:51:05.825Z,5.00
2017-10-13T13:53:32.015Z,6.30
2017-10-13T13:55:58.263Z,5.40
2017-10-13T13:58:25.169Z,9.40
2017-10-13T14:00:51.641Z,6.93
2017-10-13T14:03:18.582Z,6.30
2017-10-13T14:05:45.046Z,6.57
2017-10-13T14:08:12.992Z,5.57
2017-10-13T14:10:42.139Z,9.13
2017-10-13T14:13:09.521Z,7.20
2017-10-13T14:15:35.784Z,7.80
2017-10-13T14:18:03.532Z,7.47
2017-10-13T14:20:29.978Z,10.27
2017-10-13T14:22:56.245Z,9.97
2017-10-13T14:25:22.487Z,8.47
2017-10-13T14:27:49.123Z,8.33
2017-10-13T14:30:15.704Z,8.33
2017-10-13T14:32:42.244Z,6.70
2017-10-13T14:35:09.694Z,8.70
2017-10-13T14:37:40.123Z,7.93
2017-10-13T14:40:09.330Z,9.47
2017-10-13T14:42:37.366Z,7.43
2017-10-13T14:45:05.547Z,6.97
2017-10-13T14:47:33.932Z,10.87
2017-10-13T14:50:02.063Z,8.17
2017-10-13T14:52:30.217Z,7.80
2017-10-13T14:54:56.895Z,9.47
2017-10-13T14:57:23.348Z,8.43
2017-10-13T14:59:51.018Z,8.50
2017-10-13T15:02:18.218Z,9.30
2017-10-13T15:04:45.544Z,9.23
2017-10-13T15:07:12.762Z,10.50
2017-10-13T15:09:40.436Z,9.67
2017-10-13T15:12:07.495Z,9.53
2017-10-13T15:14:35.570Z,11.13
2017-10-13T15:17:02.070Z,9.63
2017-10-13T15:19:29.122Z,9.27
2017-10-13T15:21:55.346Z,9.10
2017-10-13T15:24:22.926Z,8.40
2017-10-13T15:26:50.143Z,11.23
2017-10-13T15:29:38.425Z,10.10
2017-10-13T15:32:11.327Z,9.47
2017-10-13T15:34:43.608Z,10.70
2017-10-13T15:37:10.018Z,9.27
2017-10-13T15:39:43.576Z,11.20
2017-10-13T15:42:15.930Z,10.70
2017-10-13T15:44:42.280Z,10.80
2017-10-13T15:47:29.705Z,11.13
2017-10-13T15:50:13.792Z,11.07
2017-10-13T15:52:40.092Z,9.90
2017-10-13T15:55:07.712Z,11.30
2017-10-13T15:57:33.992Z,11.20
2017-10-13T16:00:01.832Z,10.40
2017-10-13T16:02:28.131Z,12.90
2017-10-13T16:04:54.957Z,11.07
2017-10-13T16:07:21.516Z,10.93
2017-10-13T16:09:48.999Z,11.50
2017-10-13T16:12:16.509Z,11.83
2017-10-13T16:14:44.482Z,12.87
2017-10-13T16:17:10.754Z,10.57
2017-10-13T16:19:37.727Z,9.63
2017-10-13T16:22:04.757Z,12.23
2017-10-13T16:24:31.040Z,11.07
2017-10-13T16:26:57.668Z,12.10
2017-10-13T16:29:25.341Z,13.37
2017-10-13T16:31:54.425Z,10.73
2017-10-13T16:34:22.094Z,11.63
2017-10-13T16:36:55.514Z,11.37
2017-10-13T16:39:22.819Z,10.97
2017-10-13T16:41:50.043Z,12.77
2017-10-13T16:44:17.170Z,10.77
2017-10-13T16:46:46.196Z,12.73
2017-10-13T16:49:14.001Z,10.70
2017-10-13T16:51:42.312Z,12.00
2017-10-13T16:54:11.032Z,11.33
2017-10-13T16:56:37.761Z,14.00
2017-10-13T16:59:04.536Z,13.50
2017-10-13T17:01:31.696Z,12.20
2017-10-13T17:03:58.579Z,13.77
2017-10-13T17:06:24.831Z,10.50
2017-10-13T17:08:53.268Z,13.03
2017-10-13T17:11:20.239Z,11.60
2017-10-13T17:13:47.985Z,11.50
2017-10-13T17:16:14.240Z,12.63
2017-10-13T17:18:42.204Z,11.00
2017-10-13T17:21:09.494Z,13.07
2017-10-13T17:23:38.049Z,14.27
2017-10-13T17:26:06.638Z,12.97
2017-10-13T17:28:32.884Z,12.70
2017-10-13T17:30:59.554Z,13.50
2017-10-13T17:33:25.801Z,12.13
2017-10-13T17:35:52.075Z,12.80
2017-10-13T17:38:18.312Z,10.77
2017-10-13T17:40:45.631Z,12.33
2017-10-13T17:43:13.085Z,12.00
2017-10-13T17:45:39.311Z,12.27
2017-10-13T17:48:05.480Z,12.00
2017-10-13T17:50:32.112Z,11.97
2017-10-13T17:52:59.133Z,10.30
2017-10-13T17:55:25.981Z,10.10
2017-10-13T17:57:52.264Z,10.90
2017-10-13T18:00:18.521Z,11.00
2017-10-13T18:02:45.755Z,11.50
2017-10-13T18:05:11.957Z,11.23
2017-10-13T18:07:38.742Z,12.63
2017-10-13T18:10:05.023Z,14.67
2017-10-13T18:12:31.250Z,13.20
2017-10-13T18:14:58.987Z,14.00
2017-10-13T18:17:26.139Z,12.70
2017-10-13T18:19:52.451Z,11.33
2017-10-13T18:22:19.330Z,13.40
2017-10-13T18:24:47.061Z,11.93
2017-10-13T18:27:13.310Z,11.20
2017-10-13T18:29:40.107Z,13.03
2017-10-13T18:32:06.304Z,12.63
2017-10-13T18:34:33.656Z,12.00
2017-10-13T18:36:59.915Z,11.93
2017-10-13T18:39:26.961Z,13.13
2017-10-13T18:41:53.552Z,10.87
2017-10-13T18:44:21.359Z,10.20
2017-10-13T18:46:47.761Z,11.00
2017-10-13T18:49:14.339Z,11.50
2017-10-13T18:51:42.363Z,11.97
2017-10-13T18:54:10.342Z,10.77
2017-10-13T18:56:36.772Z,11.97
2017-10-13T18:59:06.415Z,11.73
2017-10-13T19:01:32.632Z,13.23
2017-10-13T19:03:59.198Z,11.83
2017-10-13T19:06:27.268Z,11.40
2017-10-13T19:08:53.595Z,13.97
2017-10-13T19:11:20.746Z,13.00
2017-10-13T19:13:48.021Z,13.20
2017-10-13T19:16:17.328Z,11.43
2017-10-13T19:18:43.967Z,11.30
2017-10-13T19:21:10.184Z,9.67
2017-10-13T19:23:38.087Z,10.80
2017-10-13T19:26:04.442Z,9.20
2017-10-13T19:28:32.757Z,11.73
2017-10-13T19:30:59.687Z,10.80
2017-10-13T19:33:26.436Z,11.97
2017-10-13T19:35:53.709Z,10.43
2017-10-13T19:38:20.506Z,12.87
2017-10-13T19:40:46.911Z,12.37
2017-10-13T19:43:14.771Z,12.50
2017-10-13T19:45:43.058Z,11.07
2017-10-13T19:48:09.295Z,10.87
2017-10-13T19:50:36.062Z,10.43
2017-10-13T19:53:04.265Z,12.53
2017-10-13T19:55:31.359Z,12.60
2017-10-13T19:57:57.917Z,12.20
2017-10-13T20:00:24.403Z,10.73
2017-10-13T20:02:50.632Z,9.57
2017-10-13T20:05:18.696Z,13.80
2017-10-13T20:07:45.352Z,12.87
2017-10-13T20:10:12.256Z,12.50
2017-10-13T20:12:39.660Z,11.83
2017-10-13T20:15:09.058Z,13.40
2017-10-13T20:17:36.664Z,11.07
2017-10-13T20:20:03.369Z,10.40
2017-10-13T20:22:30.454Z,10.73
2017-10-13T20:24:58.961Z,11.60
2017-10-13T20:27:29.589Z,11.20
2017-10-13T20:29:58.885Z,10.77
2017-10-13T20:32:27.011Z,10.27
2017-10-13T20:34:54.271Z,11.93
2017-10-13T20:37:21.450Z,12.63
2017-10-13T20:39:49.643Z,9.87
2017-10-13T20:42:15.995Z,10.60
2017-10-13T20:44:42.523Z,11.13
2017-10-13T20:47:08.936Z,11.50
2017-10-13T20:49:35.519Z,11.90
2017-10-13T20:52:02.140Z,9.83
2017-10-13T20:54:29.255Z,10.43
2017-10-13T20:56:55.585Z,8.53
2017-10-13T20:59:21.935Z,10.80
2017-10-13T21:01:49.637Z,8.40
2017-10-13T21:04:16.319Z,9.50
2017-10-13T21:06:42.607Z,11.63
2017-10-13T21:09:09.720Z,10.17
2017-10-13T21:14:25.532Z,12.27
2017-10-13T21:16:52.839Z,13.87
2017-10-13T21:19:19.115Z,13.30
2017-10-13T21:21:46.197Z,10.80
2017-10-13T21:24:13.515Z,13.77
2017-10-13T21:26:40.404Z,15.37
2017-10-13T21:29:06.656Z,12.30
2017-10-13T21:31:32.883Z,11.13
2017-10-13T21:34:00.063Z,12.53
2017-10-13T21:36:27.835Z,15.30
2017-10-13T21:38:54.079Z,14.60
2017-10-13T21:41:20.562Z,14.70
2017-10-13T21:43:48.302Z,11.23
2017-10-13T21:46:14.620Z,12.90
2017-10-13T21:48:41.003Z,13.03
2017-10-13T21:51:23.979Z,13.10
2017-10-13T21:53:50.721Z,12.67
2017-10-13T21:56:19.733Z,14.13
2017-10-13T21:58:46.225Z,14.40
2017-10-13T22:01:14.266Z,14.57
2017-10-13T22:03:42.187Z,14.07
2017-10-13T22:06:09.255Z,12.87
2017-10-13T22:08:35.774Z,13.10
2017-10-13T22:11:02.448Z,11.20
2017-10-13T22:13:28.641Z,11.37
2017-10-13T22:15:54.840Z,11.03
2017-10-13T22:18:21.058Z,10.33
2017-10-13T22:20:47.812Z,11.17
2017-10-13T22:23:20.412Z,11.37
2017-10-13T22:25:46.719Z,11.77
2017-10-13T22:28:13.014Z,11.30
2017-10-13T22:30:39.921Z,11.17
2017-10-13T22:33:06.150Z,11.77
2017-10-13T22:35:32.367Z,11.10
2017-10-13T22:37:58.589Z,11.37
2017-10-13T22:40:25.167Z,11.63
2017-10-13T22:42:53.329Z,12.37
2017-10-13T22:45:19.604Z,11.23
2017-10-13T22:47:46.035Z,12.70
2017-10-13T22:50:13.046Z,10.90
2017-10-13T22:52:39.331Z,10.83
2017-10-13T22:55:05.565Z,9.53
2017-10-13T22:57:32.161Z,9.10
2017-10-13T22:59:58.521Z,8.83
2017-10-13T23:02:24.839Z,8.00
2017-10-13T23:04:51.061Z,8.93
2017-10-13T23:07:18.636Z,7.53
2017-10-13T23:09:44.864Z,8.43
2017-10-13T23:12:11.095Z,8.23
2017-10-13T23:14:38.230Z,8.40
2017-10-13T23:17:05.396Z,7.70
2017-10-13T23:19:32.376Z,7.13
2017-10-13T23:21:59.560Z,7.10
2017-10-13T23:24:25.765Z,6.60
2017-10-13T23:26:52.795Z,7.73
2017-10-13T23:29:19.067Z,5.20
2017-10-13T23:31:45.857Z,6.70
2017-10-13T23:34:12.137Z,5.67
2017-10-13T23:36:38.338Z,6.53
2017-10-13T23:39:04.948Z,5.83
2017-10-13T23:41:31.362Z,5.00
2017-10-13T23:43:57.562Z,5.20
2017-10-13T23:46:23.743Z,5.20
2017-10-13T23:48:50.021Z,5.40
2017-10-13T23:51:16.234Z,5.70
2017-10-13T23:53:42.439Z,5.80
2017-10-13T23:56:09.206Z,5.10
2017-10-13T23:58:36.166Z,5.20
